Terminal Aerodrome Forecast
Issued by NWS Grand Forks, ND

Home | Current Version | Previous Version | Text Only | Print | Product List | Glossary Off
Versions: 1 2 3 4 5 6 7 8 9 10 11 12 13

000
FTUS43 KFGF 280200 AAA
TAFGFK
TAF AMD
KGFK 280201Z 2802/2824 16009KT P6SM OVC060
     FM281400 17014G22KT P6SM BKN060
     FM281700 17020G30KT P6SM BKN120=

USA.gov is the U.S. government's official web portal to all federal, state and local government web resources and services.